Time;durP1;ratioP1;P1;durP2;ratioP2;P2;SDS_P1;SDS_P2;PMS_P1;PMS_P2;Temp;Humidity;BMP_temperature;BMP_pressure;BME280_temperature;BME280_humidity;BME280_pressure;Samples;Min_cycle;Max_cycle;Signal;HPM_P1;HPM_P2
2023/01/01 00:00:28;;;;;;;32.72;29.52;;;13.60;56.10;;;;;;20538;6775;281715;-73
2023/01/01 00:03:04;;;;;;;29.00;26.20;;;13.80;55.80;;;;;;20610;6754;310954;-72
2023/01/01 00:05:40;;;;;;;25.67;22.57;;;14.10;55.00;;;;;;20801;6754;118276;-72
2023/01/01 00:08:15;;;;;;;27.07;24.17;;;14.00;55.20;;;;;;20732;6754;119859;-72
2023/01/01 00:10:52;;;;;;;33.22;29.83;;;13.80;55.30;;;;;;20606;6754;276753;-72
2023/01/01 00:13:27;;;;;;;35.30;31.83;;;13.80;55.30;;;;;;20629;6754;280128;-71
2023/01/01 00:16:04;;;;;;;34.17;30.88;;;14.30;55.00;;;;;;20626;6754;342719;-72
2023/01/01 00:18:40;;;;;;;26.77;24.17;;;14.50;53.90;;;;;;20505;6754;306677;-71
2023/01/01 00:21:16;;;;;;;23.10;21.00;;;14.40;53.80;;;;;;20653;6735;306029;-72
2023/01/01 00:23:51;;;;;;;21.15;19.25;;;14.60;53.40;;;;;;20558;6764;335888;-72
2023/01/01 00:26:27;;;;;;;17.97;16.17;;;14.70;53.10;;;;;;20728;6774;119721;-72
2023/01/01 00:29:03;;;;;;;19.27;17.40;;;14.50;53.90;;;;;;20579;6779;117731;-72
2023/01/01 00:31:40;;;;;;;21.27;18.20;;;13.90;55.40;;;;;;20742;6749;117942;-71
2023/01/01 00:34:15;;;;;;;21.77;19.47;;;13.80;55.30;;;;;;20802;6755;117675;-73
2023/01/01 00:36:51;;;;;;;20.27;18.27;;;13.70;55.90;;;;;;20763;6755;119386;-72
2023/01/01 00:39:26;;;;;;;22.67;20.50;;;13.50;56.30;;;;;;20637;6744;306088;-72
2023/01/01 00:42:05;;;;;;;22.77;20.43;;;13.80;55.00;;;;;;20819;6751;123348;-72
2023/01/01 00:44:38;;;;;;;24.03;21.37;;;13.90;55.10;;;;;;20837;6751;124155;-72
2023/01/01 00:47:13;;;;;;;24.90;22.27;;;13.80;55.50;;;;;;20774;6751;117423;-72
2023/01/01 00:49:49;;;;;;;29.45;26.60;;;13.90;54.60;;;;;;20593;6754;282183;-72
2023/01/01 00:52:25;;;;;;;29.73;26.73;;;13.80;54.50;;;;;;20801;6754;117730;-72
2023/01/01 00:55:01;;;;;;;36.40;29.33;;;13.90;54.70;;;;;;20818;6751;117311;-72
2023/01/01 00:57:36;;;;;;;34.47;29.83;;;13.80;55.20;;;;;;20723;6751;130021;-72
2023/01/01 01:00:12;;;;;;;39.30;35.17;;;13.60;55.60;;;;;;20626;6751;305946;-72
2023/01/01 01:02:48;;;;;;;39.83;33.80;;;13.90;54.80;;;;;;20815;6751;118994;-72
2023/01/01 01:05:27;;;;;;;38.53;34.40;;;13.90;54.80;;;;;;20631;6751;279609;-72
2023/01/01 01:08:00;;;;;;;32.97;29.53;;;14.10;53.80;;;;;;20471;6751;278797;-72
2023/01/01 01:10:35;;;;;;;30.70;26.50;;;14.40;53.00;;;;;;20821;6751;117331;-72
2023/01/01 01:13:11;;;;;;;30.33;27.37;;;14.50;53.40;;;;;;20607;6751;278320;-72
2023/01/01 01:15:56;;;;;;;27.00;24.10;;;14.60;52.70;;;;;;20799;6751;141230;-72
2023/01/01 01:18:28;;;;;;;23.07;20.77;;;14.50;53.30;;;;;;20705;6754;118052;-72
2023/01/01 01:20:58;;;;;;;20.90;18.90;;;14.30;53.90;;;;;;20847;6746;117922;-72
2023/01/01 01:23:34;;;;;;;22.43;20.43;;;14.10;54.50;;;;;;20626;6746;310919;-73
2023/01/01 01:26:09;;;;;;;19.43;17.43;;;14.30;53.30;;;;;;20839;6746;123966;-72
2023/01/01 01:28:46;;;;;;;18.93;16.83;;;14.20;54.60;;;;;;20693;6746;120550;-72
2023/01/01 01:31:21;;;;;;;17.20;15.50;;;14.20;54.20;;;;;;20795;6761;117829;-72
2023/01/01 01:33:57;;;;;;;16.80;15.07;;;14.10;54.70;;;;;;20842;6745;117632;-71
2023/01/01 01:36:32;;;;;;;16.73;14.40;;;14.00;55.00;;;;;;20814;6761;117180;-72
2023/01/01 01:39:08;;;;;;;16.70;14.33;;;13.90;55.20;;;;;;20637;6817;118833;-72
2023/01/01 01:41:44;;;;;;;15.23;13.73;;;13.90;55.50;;;;;;20793;6761;117853;-72
2023/01/01 01:44:50;;;;;;;15.63;14.23;;;14.10;54.20;;;;;;20609;6757;278247;-72
2023/01/01 01:47:25;;;;;;;13.27;12.07;;;14.10;54.20;;;;;;20733;6761;117409;-72
2023/01/01 01:50:24;;;;;;;12.70;11.60;;;14.20;54.40;;;;;;20816;6751;118429;-72
2023/01/01 01:53:06;;;;;;;11.77;10.57;;;14.10;54.90;;;;;;20841;6751;118348;-72
2023/01/01 01:55:47;;;;;;;12.33;11.23;;;14.00;55.30;;;;;;20815;6751;120075;-72
2023/01/01 01:58:23;;;;;;;11.90;10.70;;;13.90;55.60;;;;;;20667;6751;119622;-72
2023/01/01 02:00:59;;;;;;;13.20;11.80;;;14.10;54.10;;;;;;20622;6751;308629;-72
2023/01/01 02:03:48;;;;;;;12.70;11.60;;;14.10;54.10;;;;;;20612;6751;279259;-72
2023/01/01 02:06:24;;;;;;;11.73;10.83;;;14.60;53.10;;;;;;20633;6751;308072;-72
2023/01/01 02:08:59;;;;;;;9.70;8.77;;;15.00;52.30;;;;;;20672;6751;118874;-72
2023/01/01 02:11:36;;;;;;;10.00;9.20;;;14.90;52.90;;;;;;20606;6751;306582;-72
2023/01/01 02:14:13;;;;;;;9.47;8.67;;;14.90;52.60;;;;;;20835;6751;118555;-72
2023/01/01 02:16:55;;;;;;;8.07;7.23;;;14.70;53.30;;;;;;20829;6751;123561;-72
2023/01/01 02:19:41;;;;;;;9.60;8.90;;;14.90;52.20;;;;;;20619;6751;305746;-72
2023/01/01 02:22:31;;;;;;;9.88;9.18;;;15.20;51.40;;;;;;20635;6751;281153;-72
2023/01/01 02:25:16;;;;;;;10.13;9.23;;;15.20;51.30;;;;;;20233;6808;118464;-73
2023/01/01 02:27:58;;;;;;;10.23;9.30;;;15.10;52.00;;;;;;20693;6751;118405;-73
2023/01/01 02:30:34;;;;;;;10.37;9.57;;;14.80;52.70;;;;;;20624;6751;305349;-73
2023/01/01 02:36:45;;;;;;;8.90;8.17;;;15.20;51.10;;;;;;20803;6751;117648;-72
2023/01/01 02:39:21;;;;;;;9.10;8.30;;;14.90;52.00;;;;;;20842;6751;117423;-72
2023/01/01 02:41:57;;;;;;;8.98;8.27;;;14.60;52.80;;;;;;20602;6751;305689;-73
2023/01/01 02:44:32;;;;;;;8.20;7.50;;;14.70;52.00;;;;;;20839;6750;117322;-72
2023/01/01 02:47:08;;;;;;;7.87;7.17;;;14.70;52.50;;;;;;20802;6751;118518;-72
2023/01/01 02:49:46;;;;;;;7.77;7.07;;;14.50;53.00;;;;;;20790;6766;117338;-72
2023/01/01 02:52:25;;;;;;;9.27;8.38;;;14.30;53.40;;;;;;20576;6766;291719;-72
2023/01/01 02:55:11;;;;;;;9.60;8.80;;;14.90;51.40;;;;;;20571;6766;302360;-72
2023/01/01 02:57:46;;;;;;;10.30;9.40;;;14.90;51.30;;;;;;20290;6822;309570;-72
2023/01/01 03:00:30;;;;;;;10.60;9.80;;;15.20;50.60;;;;;;20533;6781;312507;-72
2023/01/01 03:03:26;;;;;;;11.00;10.00;;;15.40;50.00;;;;;;20756;6781;117131;-72
2023/01/01 03:06:23;;;;;;;10.50;9.63;;;15.20;50.60;;;;;;20739;6777;119383;-73
2023/01/01 03:09:13;;;;;;;11.80;10.90;;;14.90;51.40;;;;;;20419;6781;279360;-72
2023/01/01 03:11:58;;;;;;;11.07;10.13;;;14.80;51.30;;;;;;20165;6807;126246;-72
2023/01/01 03:14:44;;;;;;;12.15;10.95;;;14.70;51.90;;;;;;20628;6751;306635;-73
2023/01/01 03:17:20;;;;;;;12.50;11.50;;;14.80;51.30;;;;;;20571;6751;280016;-73
2023/01/01 03:19:56;;;;;;;12.03;10.97;;;15.10;50.90;;;;;;20655;6751;310065;-72
2023/01/01 03:22:31;;;;;;;11.50;10.50;;;15.20;50.40;;;;;;20806;6751;123172;-73
2023/01/01 03:25:11;;;;;;;12.15;11.15;;;15.00;50.80;;;;;;20624;6751;335188;-72
2023/01/01 03:27:53;;;;;;;12.23;11.23;;;15.00;50.80;;;;;;20494;6751;333864;-73
2023/01/01 03:30:28;;;;;;;11.30;10.37;;;15.10;50.50;;;;;;20750;6781;117371;-72
2023/01/01 03:33:17;;;;;;;11.82;10.93;;;14.90;51.10;;;;;;20537;6781;307214;-73
2023/01/01 03:35:53;;;;;;;11.13;10.13;;;14.80;50.90;;;;;;20739;6781;123576;-72
2023/01/01 03:38:34;;;;;;;12.57;11.50;;;14.60;51.60;;;;;;20451;6781;309803;-73
2023/01/01 03:41:28;;;;;;;10.73;9.73;;;14.60;51.30;;;;;;20783;6757;117265;-73
2023/01/01 03:44:10;;;;;;;12.63;11.47;;;14.40;51.80;;;;;;20585;6761;278090;-72
2023/01/01 03:46:49;;;;;;;10.37;9.47;;;14.50;51.60;;;;;;20801;6761;117492;-72
2023/01/01 03:49:21;;;;;;;10.88;9.93;;;14.30;52.10;;;;;;20637;6746;339860;-73
2023/01/01 03:52:17;;;;;;;9.73;8.97;;;14.40;51.80;;;;;;20621;6746;306974;-73
2023/01/01 03:55:11;;;;;;;7.60;6.97;;;14.70;51.40;;;;;;20806;6761;118055;-72
2023/01/01 03:57:54;;;;;;;7.00;6.50;;;14.50;52.10;;;;;;20547;6746;315754;-73
2023/01/01 04:00:30;;;;;;;7.60;6.20;;;14.60;51.50;;;;;;20793;6766;118074;-73
2023/01/01 04:03:15;;;;;;;6.00;5.50;;;14.50;52.00;;;;;;20788;6766;116954;-73
2023/01/01 04:05:50;;;;;;;6.70;6.10;;;14.30;52.70;;;;;;20551;6766;318896;-73
2023/01/01 04:08:26;;;;;;;5.80;5.17;;;14.50;51.90;;;;;;20665;6766;117217;-73
2023/01/01 04:12:00;;;;;;;5.90;5.50;;;14.50;52.20;;;;;;20746;6781;117254;-73
2023/01/01 04:13:49;;;;;;;5.20;4.73;;;14.40;52.70;;;;;;20740;6822;119029;-73
2023/01/01 04:16:24;;;;;;;5.43;5.03;;;14.20;53.20;;;;;;20540;6781;285731;-73
2023/01/01 04:19:00;;;;;;;5.43;5.03;;;14.90;51.00;;;;;;20384;6781;310976;-73
2023/01/01 04:21:36;;;;;;;4.67;4.37;;;14.80;50.90;;;;;;20822;6751;117443;-73
2023/01/01 04:24:13;;;;;;;4.30;4.00;;;14.90;51.30;;;;;;20783;6751;118227;-72
2023/01/01 04:26:48;;;;;;;4.80;4.50;;;14.80;51.00;;;;;;20615;6751;314968;-72
2023/01/01 04:29:23;;;;;;;4.53;4.23;;;14.80;50.90;;;;;;20840;6751;116935;-72
2023/01/01 04:31:59;;;;;;;5.20;4.90;;;14.80;51.30;;;;;;20805;6751;119196;-72
2023/01/01 04:34:35;;;;;;;7.00;4.60;;;14.60;51.90;;;;;;20836;6751;117889;-72
2023/01/01 04:37:10;;;;;;;5.53;5.15;;;14.40;52.30;;;;;;20587;6751;309029;-72
2023/01/01 04:39:47;;;;;;;5.67;5.27;;;14.60;51.10;;;;;;20604;6751;306156;-72
2023/01/01 04:42:22;;;;;;;5.67;5.33;;;14.90;50.20;;;;;;20626;6751;307063;-72
2023/01/01 04:44:59;;;;;;;5.17;4.77;;;15.30;49.70;;;;;;20828;6751;116998;-72
2023/01/01 04:47:35;;;;;;;5.87;5.40;;;15.10;50.30;;;;;;20532;6751;307516;-72
2023/01/01 04:50:10;;;;;;;5.40;4.90;;;15.20;49.80;;;;;;20835;6751;117140;-72
2023/01/01 04:52:50;;;;;;;5.93;5.43;;;15.00;50.50;;;;;;20622;6751;339919;-72
2023/01/01 04:55:22;;;;;;;5.93;5.53;;;15.30;50.10;;;;;;20614;6751;306372;-72
2023/01/01 04:57:58;;;;;;;5.85;5.45;;;15.30;49.60;;;;;;20497;6751;311646;-73
2023/01/01 05:00:33;;;;;;;5.30;4.90;;;15.50;49.10;;;;;;20833;6751;119481;-72
2023/01/01 05:03:09;;;;;;;5.53;5.13;;;15.30;49.90;;;;;;20835;6751;116899;-72
2023/01/01 05:05:45;;;;;;;6.57;6.07;;;14.90;50.60;;;;;;20600;6751;306126;-72
2023/01/01 05:08:20;;;;;;;8.93;8.13;;;14.90;50.20;;;;;;20732;6751;118278;-72
2023/01/01 05:11:02;;;;;;;11.43;10.43;;;14.80;50.60;;;;;;20839;6751;116868;-72
2023/01/01 05:13:43;;;;;;;12.07;10.87;;;14.40;51.10;;;;;;20823;6751;120577;-73
2023/01/01 05:16:16;;;;;;;12.57;11.47;;;14.00;51.60;;;;;;20842;6751;117475;-73
2023/01/01 05:18:52;;;;;;;14.40;13.10;;;13.70;52.10;;;;;;20419;6751;280607;-73
2023/01/01 05:21:28;;;;;;;12.10;11.03;;;13.80;52.00;;;;;;20831;6751;117279;-73
2023/01/01 05:24:03;;;;;;;11.00;10.00;;;13.70;52.20;;;;;;20819;6751;118908;-73
2023/01/01 05:26:39;;;;;;;11.57;10.52;;;13.40;52.70;;;;;;20626;6751;306023;-73
2023/01/01 05:29:14;;;;;;;10.00;9.00;;;13.60;52.50;;;;;;20838;6751;121050;-72
2023/01/01 05:31:50;;;;;;;10.17;9.30;;;13.50;52.50;;;;;;20811;6751;118966;-73
2023/01/01 05:34:25;;;;;;;9.30;8.43;;;13.20;53.00;;;;;;20837;6751;117129;-73
2023/01/01 05:37:02;;;;;;;8.97;8.17;;;12.80;53.80;;;;;;20801;6751;118129;-73
2023/01/01 05:39:37;;;;;;;9.03;8.27;;;12.80;53.80;;;;;;20593;6751;311457;-73
2023/01/01 05:42:14;;;;;;;7.57;6.93;;;13.00;53.50;;;;;;20842;6751;117210;-73
2023/01/01 05:44:49;;;;;;;8.88;8.07;;;13.10;53.60;;;;;;20667;6727;276002;-73
2023/01/01 05:47:44;;;;;;;8.43;7.83;;;13.30;53.10;;;;;;20468;6778;308240;-73
2023/01/01 05:50:20;;;;;;;7.40;6.87;;;13.50;52.50;;;;;;20738;6776;122282;-72
2023/01/01 05:52:57;;;;;;;8.80;8.10;;;13.50;52.40;;;;;;20589;6771;290714;-73
2023/01/01 05:55:34;;;;;;;7.47;6.80;;;13.60;52.60;;;;;;20758;6758;117996;-73
2023/01/01 05:58:10;;;;;;;7.57;6.93;;;13.40;52.30;;;;;;20773;6751;117924;-73
2023/01/01 06:00:45;;;;;;;7.40;6.80;;;13.10;52.80;;;;;;20855;6746;117467;-73
2023/01/01 06:03:21;;;;;;;8.63;8.00;;;12.70;53.10;;;;;;20641;6746;275929;-73
2023/01/01 06:05:56;;;;;;;7.43;6.93;;;12.90;53.10;;;;;;20834;6746;117927;-73
2023/01/01 06:08:39;;;;;;;8.33;7.73;;;12.80;53.10;;;;;;20741;6746;117298;-73
2023/01/01 06:11:09;;;;;;;7.63;6.93;;;12.60;53.60;;;;;;20864;6746;118207;-73
2023/01/01 06:13:44;;;;;;;7.60;6.77;;;12.40;54.10;;;;;;20786;6766;120384;-73
2023/01/01 06:16:21;;;;;;;8.07;7.47;;;12.40;54.70;;;;;;20538;6781;306477;-73
2023/01/01 06:18:56;;;;;;;6.87;6.37;;;12.40;54.30;;;;;;20668;6754;117822;-73
2023/01/01 06:21:32;;;;;;;7.72;7.12;;;12.40;54.10;;;;;;20600;6754;306523;-73
2023/01/01 06:24:07;;;;;;;7.17;6.73;;;12.60;53.70;;;;;;20685;6733;276625;-73
2023/01/01 06:26:43;;;;;;;6.30;5.80;;;13.00;53.40;;;;;;20656;6739;305575;-73
2023/01/01 06:29:18;;;;;;;6.03;5.53;;;13.20;52.60;;;;;;20875;6739;117954;-73
2023/01/01 06:31:54;;;;;;;4.97;4.63;;;13.10;52.90;;;;;;20855;6739;116792;-73
2023/01/01 06:34:30;;;;;;;4.83;4.30;;;12.70;53.50;;;;;;20879;6739;121531;-73
2023/01/01 06:37:05;;;;;;;4.67;4.37;;;12.50;54.10;;;;;;20848;6739;117512;-73
2023/01/01 06:39:41;;;;;;;4.57;4.27;;;12.30;54.60;;;;;;20812;6752;117339;-73
2023/01/01 06:42:16;;;;;;;14.75;13.50;;;12.20;54.90;;;;;;20666;6739;305557;-73
2023/01/01 06:44:52;;;;;;;5.20;4.80;;;12.40;54.30;;;;;;20872;6739;117077;-74
2023/01/01 06:47:27;;;;;;;5.07;4.67;;;12.50;54.30;;;;;;20757;6754;118061;-73
2023/01/01 06:50:04;;;;;;;5.22;4.82;;;12.50;53.90;;;;;;20620;6745;276778;-75
2023/01/01 06:52:41;;;;;;;5.10;4.70;;;12.90;53.80;;;;;;20644;6745;305482;-71
2023/01/01 06:55:16;;;;;;;7.25;5.53;;;12.90;53.30;;;;;;20641;6745;336536;-73
2023/01/01 06:57:52;;;;;;;5.70;5.30;;;13.20;52.60;;;;;;20532;6745;308077;-73
2023/01/01 07:00:27;;;;;;;5.20;4.90;;;13.40;52.20;;;;;;20602;6760;279971;-72
2023/01/01 07:03:03;;;;;;;5.32;4.93;;;13.50;51.90;;;;;;20519;6779;334752;-73
2023/01/01 07:05:39;;;;;;;5.45;5.05;;;13.70;51.70;;;;;;20516;6779;277851;-73
2023/01/01 07:08:15;;;;;;;5.55;5.15;;;13.70;51.70;;;;;;20454;6778;342484;-72
2023/01/01 07:10:50;;;;;;;4.93;4.53;;;13.80;51.60;;;;;;20848;6749;118093;-72
2023/01/01 07:13:26;;;;;;;4.90;4.50;;;13.40;52.00;;;;;;20846;6749;116937;-72
2023/01/01 07:16:02;;;;;;;4.60;4.30;;;13.00;52.80;;;;;;20828;6748;118049;-71
2023/01/01 07:18:37;;;;;;;5.57;5.18;;;12.70;53.50;;;;;;20466;6768;309185;-70
2023/01/01 07:21:32;;;;;;;5.03;4.73;;;12.80;53.30;;;;;;20778;6786;117223;-72
2023/01/01 07:24:09;;;;;;;4.97;4.57;;;12.70;53.50;;;;;;20854;6761;117469;-72
2023/01/01 07:26:45;;;;;;;6.20;5.70;;;12.40;54.00;;;;;;20657;6742;335929;-73
2023/01/01 07:29:20;;;;;;;5.03;4.63;;;12.60;54.10;;;;;;20790;6742;117786;-73
2023/01/01 07:31:56;;;;;;;6.20;5.80;;;12.50;54.10;;;;;;20647;6741;280536;-71
2023/01/01 07:34:32;;;;;;;6.73;6.23;;;12.70;53.80;;;;;;20606;6756;305023;-74
2023/01/01 07:37:07;;;;;;;6.43;6.00;;;13.00;53.30;;;;;;20575;6757;322650;-71
2023/01/01 07:39:43;;;;;;;6.13;5.73;;;13.30;52.80;;;;;;20780;6763;127238;-68
2023/01/01 07:42:18;;;;;;;5.63;5.23;;;13.10;53.10;;;;;;20839;6748;117020;-71
2023/01/01 07:44:54;;;;;;;5.40;5.00;;;12.80;53.70;;;;;;20889;6734;116902;-73
2023/01/01 07:47:30;;;;;;;5.20;4.80;;;12.40;54.80;;;;;;20801;6734;118427;-71
2023/01/01 07:50:06;;;;;;;6.03;4.77;;;12.40;54.80;;;;;;20772;6758;116967;-73
2023/01/01 07:52:43;;;;;;;5.40;4.73;;;12.30;55.20;;;;;;20833;6758;118142;-72
2023/01/01 07:55:18;;;;;;;5.33;4.93;;;12.20;55.40;;;;;;20591;6760;340461;-74
2023/01/01 07:57:57;;;;;;;5.20;4.90;;;12.50;54.80;;;;;;20529;6760;308003;-72
2023/01/01 08:00:29;;;;;;;5.30;4.90;;;13.00;54.00;;;;;;20635;6755;306079;-73
2023/01/01 08:03:06;;;;;;;5.70;5.17;;;13.70;52.60;;;;;;20690;6730;320238;-73
2023/01/01 08:05:41;;;;;;;5.10;4.60;;;13.60;52.50;;;;;;20882;6730;120461;-71
2023/01/01 08:08:17;;;;;;;6.00;4.60;;;13.50;52.80;;;;;;20649;6790;118069;-71
2023/01/01 08:10:53;;;;;;;5.53;4.75;;;13.30;53.50;;;;;;20626;6760;278253;-71
2023/01/01 08:13:29;;;;;;;4.50;4.03;;;13.40;53.10;;;;;;20841;6746;117315;-71
2023/01/01 08:16:05;;;;;;;4.10;3.70;;;13.40;53.40;;;;;;20835;6747;118164;-69
2023/01/01 08:18:44;;;;;;;5.20;4.50;;;13.10;54.20;;;;;;20717;6756;117458;-69
2023/01/01 08:21:17;;;;;;;4.40;4.00;;;13.00;54.10;;;;;;20828;6742;116964;-69
2023/01/01 08:23:56;;;;;;;4.90;4.50;;;13.30;53.60;;;;;;20721;6728;308059;-71
2023/01/01 08:26:32;;;;;;;5.20;4.70;;;13.20;53.50;;;;;;20903;6742;116949;-73
2023/01/01 08:29:07;;;;;;;4.97;4.57;;;13.40;53.70;;;;;;20420;6813;342967;-73
2023/01/01 08:31:43;;;;;;;4.20;3.90;;;13.60;53.00;;;;;;20877;6727;121791;-73
2023/01/01 08:34:21;;;;;;;4.73;4.00;;;13.60;53.10;;;;;;20921;6722;118264;-73
2023/01/01 08:36:54;;;;;;;4.80;4.27;;;13.50;53.50;;;;;;20817;6722;117006;-72
2023/01/01 08:39:30;;;;;;;4.97;4.57;;;13.30;53.90;;;;;;20642;6743;306431;-72
2023/01/01 08:42:05;;;;;;;4.17;3.83;;;13.60;53.00;;;;;;20874;6743;117156;-71
2023/01/01 08:44:41;;;;;;;4.37;3.97;;;13.60;53.10;;;;;;20654;6742;310972;-71
2023/01/01 08:47:17;;;;;;;5.28;4.78;;;13.90;52.40;;;;;;20603;6742;307372;-71
2023/01/01 08:49:52;;;;;;;5.03;4.53;;;14.20;51.50;;;;;;20760;6757;127390;-72
2023/01/01 08:52:29;;;;;;;4.43;4.03;;;14.20;51.80;;;;;;20810;6757;118699;-70
2023/01/01 08:55:05;;;;;;;4.77;4.33;;;13.90;52.40;;;;;;20602;6757;276865;-72
2023/01/01 08:57:40;;;;;;;4.73;4.33;;;14.10;51.80;;;;;;20732;6760;118005;-72
2023/01/01 09:00:16;;;;;;;5.10;4.60;;;14.20;52.30;;;;;;20838;6805;117591;-72
2023/01/01 09:02:52;;;;;;;4.97;4.60;;;14.10;52.70;;;;;;20506;6790;278688;-72
2023/01/01 09:05:27;;;;;;;4.77;4.47;;;14.30;51.60;;;;;;20490;6788;307692;-71
2023/01/01 09:08:03;;;;;;;4.30;3.90;;;14.70;51.00;;;;;;20451;6788;309577;-72
2023/01/01 09:10:39;;;;;;;4.70;4.30;;;15.10;50.60;;;;;;20547;6778;295289;-72
2023/01/01 09:13:17;;;;;;;4.83;4.37;;;15.30;49.30;;;;;;20511;6773;278240;-71
2023/01/01 09:15:53;;;;;;;3.80;3.60;;;15.30;49.70;;;;;;20694;6788;124441;-74
2023/01/01 09:18:29;;;;;;;3.80;3.43;;;15.30;49.70;;;;;;20623;6787;117527;-72
2023/01/01 09:21:05;;;;;;;4.30;3.90;;;15.00;50.50;;;;;;20586;6763;307059;-72
2023/01/01 09:23:41;;;;;;;3.77;3.57;;;15.10;50.80;;;;;;20744;6778;121277;-74
2023/01/01 09:26:17;;;;;;;3.80;3.50;;;15.00;50.60;;;;;;20569;6774;277659;-74
2023/01/01 09:28:53;;;;;;;4.55;4.25;;;15.10;50.20;;;;;;20372;6772;337329;-70
2023/01/01 09:31:28;;;;;;;4.30;3.93;;;15.50;49.80;;;;;;20771;6773;117432;-72
2023/01/01 09:34:04;;;;;;;4.60;4.20;;;15.40;50.20;;;;;;20762;6773;117869;-71
2023/01/01 09:36:43;;;;;;;4.50;4.10;;;15.20;50.90;;;;;;20805;6773;116296;-72
2023/01/01 09:39:19;;;;;;;5.20;4.80;;;14.80;52.50;;;;;;20788;6773;121532;-76
2023/01/01 09:42:16;;;;;;;5.70;5.20;;;14.80;51.80;;;;;;20545;6773;277081;-74
2023/01/01 09:45:06;;;;;;;5.23;4.83;;;15.00;50.80;;;;;;20743;6773;117566;-75
2023/01/01 09:47:45;;;;;;;5.57;5.07;;;14.70;51.60;;;;;;20664;6773;121301;-73
2023/01/01 09:50:21;;;;;;;5.43;5.03;;;14.70;51.60;;;;;;20812;6755;122812;-72
2023/01/01 09:52:56;;;;;;;50.03;7.37;;;14.50;52.10;;;;;;20579;6759;336467;-72
2023/01/01 09:55:50;;;;;;;7.53;5.87;;;14.90;52.50;;;;;;20765;6770;117954;-72
2023/01/01 09:58:25;;;;;;;6.30;5.70;;;14.80;52.40;;;;;;20376;6776;314729;-72
2023/01/01 10:01:19;;;;;;;5.20;4.83;;;15.10;51.10;;;;;;20823;6756;116870;-71
2023/01/01 10:04:15;;;;;;;5.40;5.00;;;15.20;51.40;;;;;;20555;6771;336171;-73
2023/01/01 10:07:11;;;;;;;10.17;5.03;;;15.50;51.00;;;;;;20746;6776;117178;-74
2023/01/01 10:10:03;;;;;;;5.33;4.83;;;15.50;51.00;;;;;;20756;6766;127498;-73
2023/01/01 10:12:58;;;;;;;5.17;4.73;;;15.40;51.50;;;;;;20628;6807;117388;-72
2023/01/01 10:15:34;;;;;;;5.47;5.07;;;15.30;51.90;;;;;;20541;6771;277485;-73
2023/01/01 10:18:14;;;;;;;5.65;5.25;;;16.10;48.80;;;;;;20414;6768;309621;-74
2023/01/01 10:20:55;;;;;;;5.15;4.80;;;16.00;48.70;;;;;;20613;6758;305967;-74
2023/01/01 10:23:34;;;;;;;5.30;5.00;;;16.50;48.10;;;;;;20040;6810;277246;-73
2023/01/01 10:26:09;;;;;;;5.40;5.10;;;16.80;47.60;;;;;;20596;6753;329754;-73
2023/01/01 10:29:02;;;;;;;5.40;5.00;;;17.20;47.20;;;;;;20475;6753;313815;-75
2023/01/01 10:31:38;;;;;;;5.80;5.17;;;16.90;47.90;;;;;;20741;6768;117135;-74
2023/01/01 10:34:14;;;;;;;6.07;5.57;;;16.90;47.90;;;;;;20599;6753;307935;-74
2023/01/01 10:36:50;;;;;;;5.07;4.57;;;16.90;47.60;;;;;;20759;6769;117550;-73
2023/01/01 10:39:25;;;;;;;5.07;4.67;;;16.70;48.30;;;;;;20781;6763;117195;-73
2023/01/01 10:42:01;;;;;;;5.43;4.93;;;16.40;48.90;;;;;;20550;6763;307363;-73
2023/01/01 10:44:37;;;;;;;4.53;4.13;;;16.60;48.60;;;;;;20742;6778;117182;-74
2023/01/01 10:47:27;;;;;;;4.63;4.20;;;16.60;48.60;;;;;;20679;6786;117289;-73
2023/01/01 10:50:06;;;;;;;4.90;4.50;;;16.40;49.10;;;;;;20593;6756;306454;-71
2023/01/01 10:52:39;;;;;;;6.33;4.10;;;16.70;47.50;;;;;;20801;6751;116533;-73
2023/01/01 10:55:20;;;;;;;4.40;4.10;;;16.90;47.50;;;;;;20605;6751;306323;-73
2023/01/01 10:57:55;;;;;;;4.20;3.85;;;16.90;47.10;;;;;;20525;6752;308292;-74
2023/01/01 11:00:31;;;;;;;4.67;4.30;;;17.30;45.70;;;;;;20605;6765;307091;-75
2023/01/01 11:03:13;;;;;;;3.90;3.47;;;17.70;46.30;;;;;;20815;6765;117348;-74
2023/01/01 11:06:01;;;;;;;4.10;3.80;;;17.70;47.00;;;;;;20565;6766;339483;-75
2023/01/01 11:08:40;;;;;;;3.73;3.47;;;17.80;46.00;;;;;;20688;6746;117408;-73
2023/01/01 11:11:20;;;;;;;4.30;3.60;;;17.90;45.80;;;;;;20619;6746;309943;-74
2023/01/01 11:13:56;;;;;;;4.10;3.50;;;17.80;45.70;;;;;;20550;6817;307070;-70
2023/01/01 11:16:31;;;;;;;3.57;3.37;;;18.20;45.30;;;;;;20771;6761;116999;-71
2023/01/01 11:19:07;;;;;;;4.62;4.22;;;18.10;46.00;;;;;;20407;6817;308615;-71
2023/01/01 11:21:46;;;;;;;3.73;3.47;;;18.20;45.40;;;;;;20729;6761;118071;-71
2023/01/01 11:24:21;;;;;;;4.03;3.47;;;18.20;46.10;;;;;;20831;6761;121591;-71
2023/01/01 11:27:25;;;;;;;4.10;3.60;;;18.00;46.60;;;;;;20771;6761;117170;-71
2023/01/01 11:30:20;;;;;;;4.87;4.37;;;17.80;46.90;;;;;;20542;6761;308774;-70
2023/01/01 11:32:59;;;;;;;4.53;4.10;;;18.00;46.40;;;;;;20497;6761;340946;-71
2023/01/01 11:35:34;;;;;;;6.43;3.90;;;18.40;45.10;;;;;;20806;6761;126745;-71
2023/01/01 11:38:10;;;;;;;4.10;3.80;;;18.40;45.70;;;;;;20419;6761;282809;-70
2023/01/01 11:40:55;;;;;;;4.47;4.10;;;18.40;44.30;;;;;;20627;6746;277611;-71
2023/01/01 11:43:28;;;;;;;4.80;4.40;;;18.60;44.20;;;;;;20622;6746;335483;-70
2023/01/01 11:46:03;;;;;;;4.67;4.20;;;18.80;43.60;;;;;;20816;6746;117412;-70
2023/01/01 11:48:40;;;;;;;4.17;3.77;;;18.40;45.40;;;;;;20638;6746;117583;-73
2023/01/01 11:51:32;;;;;;;3.83;3.40;;;18.30;45.20;;;;;;20771;6766;117083;-70
2023/01/01 11:54:09;;;;;;;3.90;3.27;;;18.10;45.80;;;;;;20755;6761;117204;-71
2023/01/01 11:56:44;;;;;;;4.17;3.87;;;17.90;46.30;;;;;;20576;6761;278639;-71
2023/01/01 11:59:20;;;;;;;4.40;4.00;;;18.10;44.10;;;;;;20562;6761;276798;-70
2023/01/01 12:01:56;;;;;;;3.90;3.50;;;18.40;44.30;;;;;;20772;6761;118220;-70
2023/01/01 12:04:34;;;;;;;4.37;3.97;;;18.40;44.80;;;;;;20561;6761;277185;-70
2023/01/01 12:07:17;;;;;;;5.07;3.90;;;18.50;43.60;;;;;;20556;6761;308333;-70
2023/01/01 12:10:02;;;;;;;3.77;3.30;;;18.70;43.10;;;;;;20725;6817;117504;-70
2023/01/01 12:13:07;;;;;;;4.10;3.80;;;18.70;44.10;;;;;;20654;6735;338871;-71
2023/01/01 12:16:07;;;;;;;4.03;3.63;;;18.70;43.10;;;;;;20788;6750;117456;-71
2023/01/01 12:18:40;;;;;;;4.97;3.10;;;18.60;44.20;;;;;;20497;6820;117795;-71
2023/01/01 12:21:16;;;;;;;4.80;3.37;;;18.50;42.80;;;;;;20567;6761;278036;-71
2023/01/01 12:23:52;;;;;;;4.03;2.63;;;18.40;42.70;;;;;;20781;6761;117485;-71
2023/01/01 12:26:47;;;;;;;2.97;2.77;;;18.50;43.80;;;;;;20841;6746;117019;-71
2023/01/01 12:29:26;;;;;;;3.33;2.93;;;18.30;44.30;;;;;;20848;6761;117055;-71
2023/01/01 12:32:01;;;;;;;3.10;2.80;;;18.10;44.90;;;;;;20791;6806;118486;-71
2023/01/01 12:34:37;;;;;;;3.80;3.10;;;18.00;45.40;;;;;;20592;6761;277259;-71
2023/01/01 12:37:16;;;;;;;3.55;3.25;;;18.30;44.00;;;;;;20578;6761;338601;-73
2023/01/01 12:40:11;;;;;;;5.93;3.07;;;18.70;43.20;;;;;;20796;6761;122378;-74
2023/01/01 12:42:54;;;;;;;5.83;3.30;;;18.70;43.80;;;;;;20770;6761;117213;-74
2023/01/01 12:45:42;;;;;;;3.83;3.17;;;18.60;44.80;;;;;;20829;6761;117528;-73
2023/01/01 12:48:35;;;;;;;4.13;3.30;;;18.60;43.30;;;;;;20512;6746;308550;-75
2023/01/01 12:51:31;;;;;;;5.87;3.20;;;18.60;43.30;;;;;;19996;6817;278702;-72
2023/01/01 12:54:29;;;;;;;3.33;3.13;;;19.00;42.40;;;;;;20859;6735;116926;-71
2023/01/01 12:57:24;;;;;;;3.40;3.20;;;18.90;43.30;;;;;;20858;6735;116861;-71
2023/01/01 13:00:00;;;;;;;4.47;3.30;;;18.60;44.30;;;;;;20819;6746;119123;-68
2023/01/01 13:02:35;;;;;;;3.23;2.90;;;18.40;45.10;;;;;;20836;6746;117015;-71
2023/01/01 13:05:22;;;;;;;3.40;3.13;;;18.30;45.50;;;;;;20834;6746;123248;-70
2023/01/01 13:07:58;;;;;;;3.40;3.10;;;18.20;46.00;;;;;;20400;6817;119132;-71
2023/01/01 13:10:33;;;;;;;5.22;3.40;;;18.10;46.20;;;;;;20680;6746;305071;-70
2023/01/01 13:13:09;;;;;;;4.87;3.00;;;18.30;44.30;;;;;;20905;6746;116486;-71
2023/01/01 13:15:48;;;;;;;4.73;3.13;;;18.40;44.80;;;;;;20876;6746;117450;-71
2023/01/01 13:18:23;;;;;;;3.20;2.70;;;18.30;45.20;;;;;;20757;6746;117012;-72
2023/01/01 13:20:59;;;;;;;5.77;2.90;;;18.20;45.60;;;;;;20890;6746;118030;-72
2023/01/01 13:23:34;;;;;;;9.70;4.07;;;18.10;45.70;;;;;;20905;6746;116144;-74
2023/01/01 13:26:16;;;;;;;4.63;4.00;;;18.10;45.90;;;;;;20911;6746;121522;-73
2023/01/01 13:28:59;;;;;;;3.63;3.33;;;18.00;46.10;;;;;;20748;6745;116924;-74
2023/01/01 13:31:38;;;;;;;4.90;3.93;;;18.00;46.40;;;;;;20641;6746;305628;-71